Valdez Pioneer Field Airport (VDZ/PAVD)




Flight Aircraft Arriving
GRZ5355 SF34
PANC - Ted Stevens Anchorage International Airport
United StatesAlaska Anchorage, Alaska
Flight Aircraft Departing
GRZ5354 SF34
PANC - Ted Stevens Anchorage International Airport
United StatesAlaska Anchorage, Alaska
Airport Information
Location: Valdez, US
Coordinates: 61.1342 / -146.245
Elevation:
Time Offset:
Local Time:
UTC Time:
Jet A Price: $1.1/lbs

Current Weather
METAR: PAVD 220856Z AUTO 09008KT 070V130 10SM CLR 02/M11 A3062 RMK AO2 SLP367 T00221106 58002 FZRANO
TAF: PAVD 220536Z 2206/2306 08012G25KT P6SM FEW250 AMD LTD TO CLD VIS AND WIND

Recent Arrivals
Date Flight Type Depart
08/27/2020 GRZ5354 SF34 Ted Stevens Anchorage International Airport (PANC)
04/06/2020 GRZ5354 SF34 Ted Stevens Anchorage International Airport (PANC)
09/26/2019 GRZ554 SF34 Ted Stevens Anchorage International Airport (PANC)
Recent Departures
Date Flight Type Arrive
05/01/2020 GRZ5355 SF34 Ted Stevens Anchorage International Airport (PANC)
09/26/2019 GRZ555 SF34 Ted Stevens Anchorage International Airport (PANC)